Celik 1 — 9HKY9 — position and weather

sailwx.info

Track history (hours):
 
Tides and Currents Weather Stations Pressure Air Temp Water Temp Dewpoint Dewpoint Depression Visibility Wind Speed Wind Dir Waves Ship Positions

Celik 1

Last reported at 2016-May-02 11:10 UTC. Time now 2016-May-03 06:52 UTC.
Position N 36°49' E 023°22'.

Length 121 m; draft 6.7 m.

Type: Cargo ship. MMSI: 249114000.

Date/timePositionNaut miles runAvg speedWind from/ knotsBaromVisibWave heightAir tempDewpointWater temp
2016-May-02 11:10N 36°49' E 023°22'73 9.5
2016-May-02 03:33N 37°46' E 024°19'10 9.6
2016-May-02 02:33N 37°52' E 024°28'10 9.6
2016-May-02 01:33N 37°59' E 024°37'1310.1
2016-May-02 00:14N 38°11' E 024°44'241 9.0
2016-Apr-30 21:23N 40°48' E 028°41'9 9.6
2016-Apr-30 20:27N 40°54' E 028°50'5 1.4
2016-Apr-30 17:06N 40°58' E 028°54'2 4.0
2016-Apr-30 16:33N 40°58' E 028°57'321 7.1
2016-Apr-28 19:24N 46°05' E 031°04'7 7.9
2016-Apr-28 18:33N 46°11' E 030°60'17 8.2
2016-Apr-28 16:30N 46°28' E 030°55'41 7.9
2016-Apr-28 11:22N 46°37' E 031°53'7 8.3
2016-Apr-28 10:33N 46°44' E 031°56'7 7.3
2016-Apr-28 09:33N 46°51' E 031°57'6 6.0
2016-Apr-28 08:32N 46°56' E 032°01'0 0.0
2016-Apr-28 07:32N 46°56' E 032°01'0 0.0
2016-Apr-28 06:32N 46°56' E 032°01'0 0.0
2016-Apr-28 05:32N 46°56' E 032°01'0 0.0
2016-Apr-28 04:32N 46°56' E 032°01'0 0.0
2016-Apr-28 03:32N 46°56' E 032°01'0 0.0
2016-Apr-28 02:32N 46°56' E 032°01'0 0.0
2016-Apr-28 01:32N 46°56' E 032°01'0 0.0
2016-Apr-28 00:32N 46°56' E 032°01'0 0.0
2016-Apr-27 23:32N 46°56' E 032°01'0 0.0
2016-Apr-27 22:32N 46°56' E 032°01'0 0.0
2016-Apr-27 21:32N 46°56' E 032°01'0 0.0
2016-Apr-27 20:32N 46°56' E 032°01'0 0.0
2016-Apr-27 19:32N 46°56' E 032°01'0 0.0
2016-Apr-27 18:32N 46°56' E 032°01'0 0.0
2016-Apr-27 17:32N 46°56' E 032°01'0 0.0
2016-Apr-27 16:32N 46°56' E 032°01'0 0.0
2016-Apr-27 15:32N 46°56' E 032°01'0 0.0
2016-Apr-27 14:32N 46°56' E 032°01'0 0.0
2016-Apr-27 13:32N 46°56' E 032°01'0 0.0
2016-Apr-27 12:32N 46°56' E 032°01'0 0.0
2016-Apr-27 11:32N 46°56' E 032°01'0 0.0
2016-Apr-27 10:32N 46°56' E 032°01'0 0.0
2016-Apr-27 09:32N 46°56' E 032°01'0 0.0
2016-Apr-27 08:32N 46°56' E 032°01'0 0.0
2016-Apr-27 07:32N 46°56' E 032°01'0 0.0
2016-Apr-27 06:29N 46°56' E 032°01'0 0.0
2016-Apr-27 05:29N 46°56' E 032°01'0 0.0
2016-Apr-27 04:29N 46°56' E 032°01'0 0.0
2016-Apr-27 03:29N 46°56' E 032°01'0 0.0
2016-Apr-27 02:29N 46°56' E 032°01'0 0.0
2016-Apr-27 01:29N 46°56' E 032°01'0 0.0
2016-Apr-27 00:23N 46°56' E 032°01'0 0.0
2016-Apr-26 23:32N 46°56' E 032°01'0 0.0
2016-Apr-26 22:32N 46°56' E 032°01'0 0.0
2016-Apr-26 21:32N 46°56' E 032°01'0 0.0
2016-Apr-26 20:29N 46°56' E 032°01'0 0.0
2016-Apr-26 19:32N 46°56' E 032°01'0 0.0
2016-Apr-26 18:32N 46°56' E 032°01'0 0.0
2016-Apr-26 17:32N 46°56' E 032°01'0 0.0
2016-Apr-26 16:32N 46°56' E 032°01'0 0.0
2016-Apr-26 15:32N 46°56' E 032°01'0 0.0
2016-Apr-26 14:32N 46°56' E 032°01'0 0.0
2016-Apr-26 13:32N 46°56' E 032°01'0 0.0
2016-Apr-26 12:32N 46°56' E 032°01'0 0.0
2016-Apr-26 11:32N 46°56' E 032°01'0 0.0
2016-Apr-26 10:32N 46°56' E 032°01'0 0.0
2016-Apr-26 09:32N 46°56' E 032°01'0 0.0
2016-Apr-26 08:32N 46°56' E 032°01'0 0.1
2016-Apr-26 07:32N 46°56' E 032°01'0 0.0
2016-Apr-26 06:32N 46°56' E 032°01'0 0.0
2016-Apr-26 05:32N 46°56' E 032°01'0 0.0
2016-Apr-26 04:29N 46°56' E 032°01'0 0.0
2016-Apr-26 03:32N 46°56' E 032°01'0 0.0
2016-Apr-26 02:32N 46°56' E 032°01'0 0.0
2016-Apr-26 01:32N 46°56' E 032°01'0 0.0
2016-Apr-26 00:32N 46°56' E 032°01'0 0.0
2016-Apr-25 23:32N 46°56' E 032°01'0 0.0
2016-Apr-25 22:32N 46°56' E 032°01'0 0.0
2016-Apr-25 21:32N 46°56' E 032°01'0 0.0
2016-Apr-25 20:32N 46°56' E 032°01'0 0.0
2016-Apr-25 19:32N 46°56' E 032°01'0 0.0
2016-Apr-25 18:32N 46°56' E 032°01'0 0.0
2016-Apr-25 17:32N 46°56' E 032°01'0 0.0
2016-Apr-25 16:32N 46°56' E 032°01'0 0.0
2016-Apr-25 15:29N 46°56' E 032°01'0 0.0
2016-Apr-25 14:32N 46°56' E 032°01'0 0.0
2016-Apr-25 13:32N 46°56' E 032°01'0 0.0
2016-Apr-25 12:32N 46°56' E 032°01'0 0.0
2016-Apr-25 11:32N 46°56' E 032°01'0 0.0
2016-Apr-25 10:29N 46°56' E 032°01'0 0.0
2016-Apr-25 09:30N 46°56' E 032°01'4 4.6
2016-Apr-25 08:34N 46°52' E 031°59'9 8.6
2016-Apr-25 07:34N 46°44' E 031°55'9 8.9
2016-Apr-25 06:34N 46°36' E 031°49'1010.2
2016-Apr-25 05:33N 46°35' E 031°35'10 9.2
2016-Apr-25 04:31N 46°35' E 031°21'13 9.4
2016-Apr-25 03:06N 46°34' E 031°02'4 6.6
2016-Apr-25 02:34N 46°32' E 030°57'9 9.5
2016-Apr-25 01:34N 46°22' E 030°58'5 5.0
2016-Apr-25 00:28N 46°19' E 031°04'0 0.0
2016-Apr-24 23:31N 46°19' E 031°04'0 0.0
2016-Apr-24 22:31N 46°19' E 031°04'0 0.0
2016-Apr-24 21:31N 46°19' E 031°04'0 0.0
2016-Apr-24 20:31N 46°19' E 031°04'0 0.0
2016-Apr-24 17:31N 46°19' E 031°04'6 5.8
2016-Apr-24 16:33N 46°14' E 031°06'9410.5
2016-Apr-24 07:33N 44°43' E 030°31'1010.0
2016-Apr-24 06:32N 44°33' E 030°27'226 9.8
2016-Apr-23 07:26N 40°56' E 028°59'3 0.8
2016-Apr-23 03:32N 40°59' E 028°56'0 0.0
2016-Apr-22 23:20N 40°59' E 028°56'0 0.0
2016-Apr-22 22:20N 40°59' E 028°56'  
Track history (hours):
 
Tides and Currents Weather Stations Pressure Air Temp Water Temp Dewpoint Dewpoint Depression Visibility Wind Speed Wind Dir Waves Ship Positions

Celik 1

Last reported at 2016-May-02 11:10 UTC. Time now 2016-May-03 06:52 UTC.
Position N 36°49' E 023°22'.

Length 121 m; draft 6.7 m.

Type: Cargo ship. MMSI: 249114000.

Date/timePositionNaut miles runAvg speedWind from/ knotsBaromVisibWave heightAir tempDewpointWater temp
2016-May-02 11:10N 36°49' E 023°22'73 9.5
2016-May-02 03:33N 37°46' E 024°19'10 9.6
2016-May-02 02:33N 37°52' E 024°28'10 9.6
2016-May-02 01:33N 37°59' E 024°37'1310.1
2016-May-02 00:14N 38°11' E 024°44'241 9.0
2016-Apr-30 21:23N 40°48' E 028°41'9 9.6
2016-Apr-30 20:27N 40°54' E 028°50'5 1.4
2016-Apr-30 17:06N 40°58' E 028°54'2 4.0
2016-Apr-30 16:33N 40°58' E 028°57'321 7.1
2016-Apr-28 19:24N 46°05' E 031°04'7 7.9
2016-Apr-28 18:33N 46°11' E 030°60'17 8.2
2016-Apr-28 16:30N 46°28' E 030°55'41 7.9
2016-Apr-28 11:22N 46°37' E 031°53'7 8.3
2016-Apr-28 10:33N 46°44' E 031°56'7 7.3
2016-Apr-28 09:33N 46°51' E 031°57'6 6.0
2016-Apr-28 08:32N 46°56' E 032°01'0 0.0
2016-Apr-28 07:32N 46°56' E 032°01'0 0.0
2016-Apr-28 06:32N 46°56' E 032°01'0 0.0
2016-Apr-28 05:32N 46°56' E 032°01'0 0.0
2016-Apr-28 04:32N 46°56' E 032°01'0 0.0
2016-Apr-28 03:32N 46°56' E 032°01'0 0.0
2016-Apr-28 02:32N 46°56' E 032°01'0 0.0
2016-Apr-28 01:32N 46°56' E 032°01'0 0.0
2016-Apr-28 00:32N 46°56' E 032°01'0 0.0
2016-Apr-27 23:32N 46°56' E 032°01'0 0.0
2016-Apr-27 22:32N 46°56' E 032°01'0 0.0
2016-Apr-27 21:32N 46°56' E 032°01'0 0.0
2016-Apr-27 20:32N 46°56' E 032°01'0 0.0
2016-Apr-27 19:32N 46°56' E 032°01'0 0.0
2016-Apr-27 18:32N 46°56' E 032°01'0 0.0
2016-Apr-27 17:32N 46°56' E 032°01'0 0.0
2016-Apr-27 16:32N 46°56' E 032°01'0 0.0
2016-Apr-27 15:32N 46°56' E 032°01'0 0.0
2016-Apr-27 14:32N 46°56' E 032°01'0 0.0
2016-Apr-27 13:32N 46°56' E 032°01'0 0.0
2016-Apr-27 12:32N 46°56' E 032°01'0 0.0
2016-Apr-27 11:32N 46°56' E 032°01'0 0.0
2016-Apr-27 10:32N 46°56' E 032°01'0 0.0
2016-Apr-27 09:32N 46°56' E 032°01'0 0.0
2016-Apr-27 08:32N 46°56' E 032°01'0 0.0
2016-Apr-27 07:32N 46°56' E 032°01'0 0.0
2016-Apr-27 06:29N 46°56' E 032°01'0 0.0
2016-Apr-27 05:29N 46°56' E 032°01'0 0.0
2016-Apr-27 04:29N 46°56' E 032°01'0 0.0
2016-Apr-27 03:29N 46°56' E 032°01'0 0.0
2016-Apr-27 02:29N 46°56' E 032°01'0 0.0
2016-Apr-27 01:29N 46°56' E 032°01'0 0.0
2016-Apr-27 00:23N 46°56' E 032°01'0 0.0
2016-Apr-26 23:32N 46°56' E 032°01'0 0.0
2016-Apr-26 22:32N 46°56' E 032°01'0 0.0
2016-Apr-26 21:32N 46°56' E 032°01'0 0.0
2016-Apr-26 20:29N 46°56' E 032°01'0 0.0
2016-Apr-26 19:32N 46°56' E 032°01'0 0.0
2016-Apr-26 18:32N 46°56' E 032°01'0 0.0
2016-Apr-26 17:32N 46°56' E 032°01'0 0.0
2016-Apr-26 16:32N 46°56' E 032°01'0 0.0
2016-Apr-26 15:32N 46°56' E 032°01'0 0.0
2016-Apr-26 14:32N 46°56' E 032°01'0 0.0
2016-Apr-26 13:32N 46°56' E 032°01'0 0.0
2016-Apr-26 12:32N 46°56' E 032°01'0 0.0
2016-Apr-26 11:32N 46°56' E 032°01'0 0.0
2016-Apr-26 10:32N 46°56' E 032°01'0 0.0
2016-Apr-26 09:32N 46°56' E 032°01'0 0.0
2016-Apr-26 08:32N 46°56' E 032°01'0 0.1
2016-Apr-26 07:32N 46°56' E 032°01'0 0.0
2016-Apr-26 06:32N 46°56' E 032°01'0 0.0
2016-Apr-26 05:32N 46°56' E 032°01'0 0.0
2016-Apr-26 04:29N 46°56' E 032°01'0 0.0
2016-Apr-26 03:32N 46°56' E 032°01'0 0.0
2016-Apr-26 02:32N 46°56' E 032°01'0 0.0
2016-Apr-26 01:32N 46°56' E 032°01'0 0.0
2016-Apr-26 00:32N 46°56' E 032°01'0 0.0
2016-Apr-25 23:32N 46°56' E 032°01'0 0.0
2016-Apr-25 22:32N 46°56' E 032°01'0 0.0
2016-Apr-25 21:32N 46°56' E 032°01'0 0.0
2016-Apr-25 20:32N 46°56' E 032°01'0 0.0
2016-Apr-25 19:32N 46°56' E 032°01'0 0.0
2016-Apr-25 18:32N 46°56' E 032°01'0 0.0
2016-Apr-25 17:32N 46°56' E 032°01'0 0.0
2016-Apr-25 16:32N 46°56' E 032°01'0 0.0
2016-Apr-25 15:29N 46°56' E 032°01'0 0.0
2016-Apr-25 14:32N 46°56' E 032°01'0 0.0
2016-Apr-25 13:32N 46°56' E 032°01'0 0.0
2016-Apr-25 12:32N 46°56' E 032°01'0 0.0
2016-Apr-25 11:32N 46°56' E 032°01'0 0.0
2016-Apr-25 10:29N 46°56' E 032°01'0 0.0
2016-Apr-25 09:30N 46°56' E 032°01'4 4.6
2016-Apr-25 08:34N 46°52' E 031°59'9 8.6
2016-Apr-25 07:34N 46°44' E 031°55'9 8.9
2016-Apr-25 06:34N 46°36' E 031°49'1010.2
2016-Apr-25 05:33N 46°35' E 031°35'10 9.2
2016-Apr-25 04:31N 46°35' E 031°21'13 9.4
2016-Apr-25 03:06N 46°34' E 031°02'4 6.6
2016-Apr-25 02:34N 46°32' E 030°57'9 9.5
2016-Apr-25 01:34N 46°22' E 030°58'5 5.0
2016-Apr-25 00:28N 46°19' E 031°04'0 0.0
2016-Apr-24 23:31N 46°19' E 031°04'0 0.0
2016-Apr-24 22:31N 46°19' E 031°04'0 0.0
2016-Apr-24 21:31N 46°19' E 031°04'0 0.0
2016-Apr-24 20:31N 46°19' E 031°04'0 0.0
2016-Apr-24 17:31N 46°19' E 031°04'6 5.8
2016-Apr-24 16:33N 46°14' E 031°06'9410.5
2016-Apr-24 07:33N 44°43' E 030°31'1010.0
2016-Apr-24 06:32N 44°33' E 030°27'226 9.8
2016-Apr-23 07:26N 40°56' E 028°59'3 0.8
2016-Apr-23 03:32N 40°59' E 028°56'0 0.0
2016-Apr-22 23:20N 40°59' E 028°56'0 0.0
2016-Apr-22 22:20N 40°59' E 028°56'  

Dump ship's entire track history